Time;durP1;ratioP1;P1;durP2;ratioP2;P2;SDS_P1;SDS_P2;PMS_P1;PMS_P2;Temp;Humidity;BMP_temperature;BMP_pressure;BME280_temperature;BME280_humidity;BME280_pressure;Samples;Min_cycle;Max_cycle;Signal;HPM_P1;HPM_P2
2022/11/16 00:02:17;;;;;;;10.77;8.80;;;11.10;99.90;;;;;;5090085;28;20046;-74
2022/11/16 00:04:42;;;;;;;12.00;8.80;;;11.10;99.90;;;;;;5091731;28;20032;-74
2022/11/16 00:07:08;;;;;;;14.70;9.63;;;11.00;99.90;;;;;;5090455;28;20464;-74
2022/11/16 00:09:34;;;;;;;12.07;9.52;;;10.90;99.90;;;;;;5090422;28;20044;-74
2022/11/16 00:12:02;;;;;;;12.77;9.95;;;11.00;99.90;;;;;;5090301;28;20047;-74
2022/11/16 00:14:31;;;;;;;13.23;10.07;;;10.80;99.90;;;;;;5090147;28;20036;-74
2022/11/16 00:16:57;;;;;;;10.82;9.55;;;11.10;99.90;;;;;;5090332;28;20047;-74
2022/11/16 00:19:24;;;;;;;11.85;8.88;;;11.10;99.90;;;;;;5091727;28;20121;-74
2022/11/16 00:21:50;;;;;;;12.40;9.15;;;11.10;99.90;;;;;;5090288;28;20058;-74
2022/11/16 00:24:17;;;;;;;16.52;9.85;;;11.00;99.90;;;;;;5090127;28;20044;-74
2022/11/16 00:26:44;;;;;;;15.30;10.48;;;10.80;99.90;;;;;;5090377;28;20047;-74
2022/11/16 00:29:14;;;;;;;14.02;9.90;;;10.80;99.90;;;;;;5091510;28;20048;-74
2022/11/16 00:31:40;;;;;;;11.60;9.52;;;11.10;99.90;;;;;;5090174;28;20071;-74
2022/11/16 00:34:05;;;;;;;11.90;8.98;;;11.10;99.90;;;;;;5091162;28;20067;-74
2022/11/16 00:36:31;;;;;;;12.65;9.48;;;11.00;99.90;;;;;;5090526;28;20040;-74
2022/11/16 00:38:56;;;;;;;13.98;9.77;;;10.90;99.90;;;;;;5090091;28;20038;-74
2022/11/16 00:41:22;;;;;;;13.77;9.25;;;10.80;99.90;;;;;;5090073;28;20044;-74
2022/11/16 00:43:48;;;;;;;12.07;8.80;;;11.10;99.90;;;;;;5089948;28;20075;-74
2022/11/16 00:46:13;;;;;;;10.90;9.38;;;10.90;99.90;;;;;;5090121;28;20032;-74
2022/11/16 00:48:39;;;;;;;10.68;8.40;;;10.80;99.90;;;;;;5089970;28;20062;-74
2022/11/16 00:51:04;;;;;;;11.75;8.70;;;10.80;99.90;;;;;;5093456;28;20090;-74
2022/11/16 00:53:30;;;;;;;15.23;9.38;;;11.10;99.90;;;;;;5093210;28;20486;-74
2022/11/16 00:55:55;;;;;;;11.98;9.00;;;10.90;99.90;;;;;;5093891;28;20066;-74
2022/11/16 00:58:21;;;;;;;13.55;9.40;;;11.10;99.90;;;;;;5093874;28;20131;-74
2022/11/16 01:00:47;;;;;;;11.82;9.18;;;10.90;99.90;;;;;;5093560;28;20532;-73
2022/11/16 01:03:12;;;;;;;13.57;9.32;;;10.80;99.90;;;;;;5093135;28;20044;-73
2022/11/16 01:05:38;;;;;;;13.00;9.30;;;11.10;99.90;;;;;;5093676;28;20040;-73
2022/11/16 01:08:04;;;;;;;12.73;9.20;;;11.00;99.90;;;;;;5094883;28;20580;-74
2022/11/16 01:10:30;;;;;;;13.32;8.38;;;11.00;99.90;;;;;;5093585;28;20499;-73
2022/11/16 01:12:55;;;;;;;15.65;9.95;;;11.20;99.90;;;;;;5093300;28;20071;-74
2022/11/16 01:15:24;;;;;;;13.45;10.20;;;11.10;99.90;;;;;;5093788;28;20078;-73
2022/11/16 01:17:52;;;;;;;11.50;8.52;;;10.80;99.90;;;;;;5076543;28;20039;-74
2022/11/16 01:20:20;;;;;;;14.35;10.52;;;10.90;99.90;;;;;;5093360;28;20508;-74
2022/11/16 01:22:46;;;;;;;12.63;9.23;;;10.90;99.90;;;;;;5092980;28;20051;-74
2022/11/16 01:25:15;;;;;;;13.52;8.90;;;11.00;99.90;;;;;;5093187;28;20036;-74
2022/11/16 01:27:41;;;;;;;11.25;8.20;;;10.90;99.90;;;;;;5093178;28;20043;-74
2022/11/16 01:30:09;;;;;;;10.82;8.73;;;11.20;99.90;;;;;;5093196;28;20036;-74
2022/11/16 01:32:35;;;;;;;11.27;8.82;;;11.20;99.90;;;;;;5092737;28;20061;-74
2022/11/16 01:35:01;;;;;;;12.10;8.50;;;11.00;99.90;;;;;;5093160;28;20139;-74
2022/11/16 01:37:28;;;;;;;13.80;9.07;;;11.20;99.90;;;;;;5093085;28;20718;-74
2022/11/16 01:39:54;;;;;;;12.57;9.40;;;11.20;99.90;;;;;;5093374;28;20390;-73
2022/11/16 01:42:22;;;;;;;11.80;8.48;;;11.10;99.90;;;;;;5092609;28;20066;-74
2022/11/16 01:44:48;;;;;;;12.68;9.30;;;11.30;99.90;;;;;;5076089;28;20047;-74
2022/11/16 01:47:15;;;;;;;10.90;8.02;;;11.20;99.90;;;;;;5093096;28;20040;-74
2022/11/16 01:49:46;;;;;;;11.00;8.48;;;11.00;99.90;;;;;;5092737;28;20044;-74
2022/11/16 01:52:15;;;;;;;11.63;8.70;;;11.00;99.90;;;;;;5092947;28;20048;-74
2022/11/16 01:54:44;;;;;;;16.23;8.32;;;11.20;99.90;;;;;;5092541;28;20040;-74
2022/11/16 01:57:14;;;;;;;10.98;8.52;;;11.20;99.90;;;;;;5092668;28;20078;-74
2022/11/16 01:59:42;;;;;;;13.55;8.68;;;11.30;99.90;;;;;;5092913;28;20055;-74
2022/11/16 02:02:08;;;;;;;15.48;9.57;;;11.00;99.90;;;;;;5091434;28;20176;-74
2022/11/16 02:04:33;;;;;;;11.90;8.73;;;11.30;99.90;;;;;;5092430;28;20115;-74
2022/11/16 02:07:22;;;;;;;14.35;8.80;;;11.30;99.90;;;;;;5092503;28;20051;-74
2022/11/16 02:10:14;;;;;;;11.65;7.88;;;11.30;99.90;;;;;;5093802;28;20088;-74
2022/11/16 02:13:07;;;;;;;13.75;8.35;;;11.10;99.90;;;;;;5092081;28;20044;-74
2022/11/16 02:15:57;;;;;;;14.07;8.88;;;11.20;99.90;;;;;;5092277;28;20477;-74
2022/11/16 02:18:40;;;;;;;12.13;8.65;;;11.00;99.90;;;;;;5092313;28;20075;-74
2022/11/16 02:21:22;;;;;;;11.93;8.80;;;11.00;99.90;;;;;;5109387;28;20047;-73
2022/11/16 02:24:03;;;;;;;11.63;7.90;;;11.40;99.90;;;;;;5108979;28;20509;-74
2022/11/16 02:26:49;;;;;;;11.27;8.23;;;11.10;99.90;;;;;;5109141;28;20128;-74
2022/11/16 02:29:27;;;;;;;11.40;8.32;;;11.30;99.90;;;;;;5092387;28;20044;-74
2022/11/16 02:32:06;;;;;;;12.82;8.10;;;11.10;99.90;;;;;;5088553;28;20039;-74
2022/11/16 02:34:38;;;;;;;9.98;7.60;;;11.40;99.90;;;;;;5088436;28;20039;-74
2022/11/16 02:37:06;;;;;;;14.00;7.80;;;11.20;99.90;;;;;;5082883;28;20047;-74
2022/11/16 02:39:35;;;;;;;14.68;8.27;;;11.10;99.90;;;;;;5091800;28;20040;-74
2022/11/16 02:42:03;;;;;;;12.10;8.80;;;11.20;99.90;;;;;;5091767;28;20036;-74
2022/11/16 02:44:41;;;;;;;9.75;7.20;;;11.40;99.90;;;;;;5091436;28;20040;-74
2022/11/16 02:47:12;;;;;;;14.75;8.35;;;11.20;99.90;;;;;;5091707;28;20040;-74
2022/11/16 02:49:43;;;;;;;12.65;7.68;;;11.40;99.90;;;;;;5091720;28;20040;-74
2022/11/16 02:52:10;;;;;;;11.05;7.68;;;11.20;99.90;;;;;;5091606;28;20074;-74
2022/11/16 02:54:36;;;;;;;10.43;7.03;;;11.20;99.90;;;;;;5091430;28;20127;-74
2022/11/16 02:57:01;;;;;;;11.73;8.13;;;11.10;99.90;;;;;;5091439;28;20130;-74
2022/11/16 02:59:41;;;;;;;13.88;7.63;;;11.20;99.90;;;;;;5091667;28;20070;-74
2022/11/16 03:02:15;;;;;;;13.32;8.80;;;11.20;99.90;;;;;;5091222;28;20098;-74
2022/11/16 03:04:46;;;;;;;18.85;8.55;;;11.00;99.90;;;;;;5092615;28;20036;-74
2022/11/16 03:07:15;;;;;;;21.73;10.10;;;11.30;99.90;;;;;;5091626;28;20109;-74
2022/11/16 03:09:44;;;;;;;11.02;8.23;;;11.30;99.90;;;;;;5091297;28;20071;-74
2022/11/16 03:12:14;;;;;;;12.75;8.23;;;11.30;99.90;;;;;;5091450;28;20094;-74
2022/11/16 03:14:48;;;;;;;13.98;8.75;;;11.20;99.90;;;;;;5090924;28;20128;-74
2022/11/16 03:17:23;;;;;;;13.68;8.95;;;11.20;99.90;;;;;;5092482;28;20040;-74
2022/11/16 03:20:03;;;;;;;13.13;8.38;;;11.10;99.90;;;;;;5091127;28;20044;-74
2022/11/16 03:22:44;;;;;;;13.23;8.60;;;11.00;99.90;;;;;;5092114;28;20040;-74
2022/11/16 03:25:14;;;;;;;12.23;8.32;;;11.00;99.90;;;;;;5083825;28;20049;-74
2022/11/16 03:28:08;;;;;;;13.32;8.48;;;11.10;99.90;;;;;;5070789;28;20047;-74
2022/11/16 03:30:42;;;;;;;12.35;8.40;;;11.00;99.90;;;;;;5070720;28;20115;-74
2022/11/16 03:33:23;;;;;;;11.90;8.40;;;11.10;99.90;;;;;;5070390;28;20128;-74
2022/11/16 03:36:04;;;;;;;11.18;8.50;;;11.00;99.90;;;;;;5070666;28;20413;-74
2022/11/16 03:38:32;;;;;;;13.45;8.60;;;10.90;99.90;;;;;;5071985;28;20111;-74
2022/11/16 03:41:07;;;;;;;10.63;8.88;;;10.90;99.90;;;;;;5053729;28;20044;-74
2022/11/16 03:43:36;;;;;;;12.45;8.40;;;11.20;99.90;;;;;;5070482;28;20055;-74
2022/11/16 03:46:02;;;;;;;10.95;8.88;;;10.90;99.90;;;;;;5070368;28;20132;-74
2022/11/16 03:48:37;;;;;;;13.63;9.50;;;10.90;99.90;;;;;;5070348;28;20119;-74
2022/11/16 03:51:03;;;;;;;19.70;9.77;;;11.10;99.90;;;;;;5070509;28;20502;-74
2022/11/16 03:53:29;;;;;;;13.43;9.07;;;11.00;99.90;;;;;;5070088;28;20101;-73
2022/11/16 03:55:55;;;;;;;13.55;9.70;;;11.10;99.90;;;;;;5070308;28;20498;-74
2022/11/16 03:58:20;;;;;;;12.82;8.98;;;11.00;99.90;;;;;;5071585;28;20036;-74
2022/11/16 04:00:46;;;;;;;13.43;10.43;;;10.90;99.90;;;;;;5070170;28;20429;-74
2022/11/16 04:03:12;;;;;;;15.85;9.10;;;10.90;99.90;;;;;;5070045;28;20442;-74
2022/11/16 04:25:10;;;;;;;15.45;11.57;;;10.90;99.90;;;;;;5070976;28;20127;-74
2022/11/16 04:30:20;;;;;;;15.68;11.18;;;10.80;99.90;;;;;;5074364;28;20067;-74
2022/11/16 04:38:13;;;;;;;15.05;10.77;;;10.90;99.90;;;;;;5073865;28;20056;-74
2022/11/16 04:40:39;;;;;;;14.50;10.25;;;10.90;99.90;;;;;;5073883;28;20040;-74
2022/11/16 04:43:05;;;;;;;14.65;11.30;;;11.00;99.90;;;;;;5073552;28;20041;-74
2022/11/16 04:48:17;;;;;;;16.63;12.23;;;11.00;99.90;;;;;;5073871;28;20040;-74
2022/11/16 04:50:43;;;;;;;16.60;12.20;;;11.00;99.90;;;;;;5073826;28;20049;-74
2022/11/16 04:53:09;;;;;;;19.15;12.00;;;10.90;99.90;;;;;;5089037;28;20443;-74
2022/11/16 04:55:35;;;;;;;17.25;12.05;;;10.80;99.90;;;;;;5093915;28;20032;-74
2022/11/16 04:58:01;;;;;;;14.88;10.90;;;11.00;99.90;;;;;;5093658;28;20039;-74
2022/11/16 05:00:28;;;;;;;16.13;11.73;;;11.00;99.90;;;;;;5093677;28;20085;-73
2022/11/16 05:02:53;;;;;;;19.73;14.27;;;10.80;99.90;;;;;;5093227;28;20040;-74
2022/11/16 05:05:19;;;;;;;18.08;12.82;;;11.00;99.90;;;;;;5093750;28;20036;-74
2022/11/16 05:07:44;;;;;;;17.88;12.25;;;10.70;99.90;;;;;;5093703;28;20031;-74
2022/11/16 05:10:11;;;;;;;16.83;12.20;;;11.00;99.90;;;;;;5093697;28;20084;-74
2022/11/16 05:12:37;;;;;;;19.95;12.60;;;10.80;99.90;;;;;;5076182;28;20040;-74
2022/11/16 05:15:03;;;;;;;18.60;13.52;;;10.80;99.90;;;;;;5093473;28;20050;-74
2022/11/16 05:17:29;;;;;;;19.75;13.25;;;11.00;99.90;;;;;;5093405;28;20485;-74
2022/11/16 05:22:38;;;;;;;16.20;12.43;;;10.70;99.90;;;;;;5094044;28;20051;-74
2022/11/16 05:25:06;;;;;;;19.25;13.32;;;10.80;99.90;;;;;;5093532;28;20036;-74
2022/11/16 05:27:32;;;;;;;17.48;12.95;;;11.00;99.90;;;;;;5093117;28;20490;-74
2022/11/16 05:29:58;;;;;;;18.65;13.38;;;11.00;99.90;;;;;;5093426;28;20055;-74
2022/11/16 05:32:24;;;;;;;17.52;12.95;;;10.80;99.90;;;;;;5094366;28;20040;-74
2022/11/16 05:34:50;;;;;;;19.75;13.93;;;10.90;99.90;;;;;;5093120;28;20043;-74
2022/11/16 05:37:17;;;;;;;18.80;13.68;;;11.00;99.90;;;;;;5093113;28;20048;-74
2022/11/16 05:39:42;;;;;;;18.65;14.32;;;11.00;99.90;;;;;;5092897;28;20087;-74
2022/11/16 05:42:08;;;;;;;19.83;14.75;;;11.00;99.90;;;;;;5094054;28;20072;-74
2022/11/16 05:44:34;;;;;;;20.73;14.25;;;10.90;99.90;;;;;;5094085;28;20119;-74
2022/11/16 05:47:00;;;;;;;21.98;14.52;;;10.70;99.90;;;;;;5094117;28;20040;-73
2022/11/16 05:49:26;;;;;;;21.00;14.93;;;11.00;99.90;;;;;;5092793;28;20039;-73
2022/11/16 05:51:51;;;;;;;20.48;14.38;;;11.00;99.90;;;;;;5092991;28;20040;-73
2022/11/16 05:54:20;;;;;;;21.02;13.90;;;10.80;99.90;;;;;;5092323;28;20044;-73
2022/11/16 05:56:47;;;;;;;19.92;15.05;;;10.90;99.90;;;;;;5092900;28;20040;-74
2022/11/16 05:59:18;;;;;;;20.25;13.93;;;10.80;99.90;;;;;;5092553;28;20040;-73
2022/11/16 06:01:44;;;;;;;20.35;15.10;;;11.00;99.90;;;;;;5092295;28;20071;-74
2022/11/16 06:04:10;;;;;;;22.08;15.50;;;10.80;99.90;;;;;;5093616;28;20032;-73
2022/11/16 06:06:36;;;;;;;19.52;14.80;;;10.80;99.90;;;;;;5093395;28;20420;-74
2022/11/16 06:09:02;;;;;;;20.75;14.80;;;10.90;99.90;;;;;;5093873;28;20036;-73
2022/11/16 06:11:28;;;;;;;21.83;14.40;;;10.90;99.90;;;;;;5092419;28;20093;-74
2022/11/16 06:13:54;;;;;;;22.08;14.27;;;10.80;99.90;;;;;;5092294;28;20202;-74
2022/11/16 06:16:19;;;;;;;19.52;15.07;;;11.00;99.90;;;;;;5093628;28;20043;-74
2022/11/16 06:18:46;;;;;;;16.92;13.68;;;11.00;99.90;;;;;;5093692;28;20038;-74
2022/11/16 06:21:14;;;;;;;18.45;14.13;;;11.00;99.90;;;;;;5092219;28;20032;-74
2022/11/16 06:23:40;;;;;;;18.77;16.00;;;10.80;99.90;;;;;;5092021;28;20093;-73
2022/11/16 06:26:06;;;;;;;20.75;14.68;;;11.00;99.90;;;;;;5092098;28;20036;-74
2022/11/16 06:28:32;;;;;;;18.38;15.13;;;11.00;99.90;;;;;;5093388;28;20509;-74
2022/11/16 06:30:57;;;;;;;22.20;15.88;;;10.90;99.90;;;;;;5092349;28;20235;-74
2022/11/16 06:33:23;;;;;;;22.95;17.25;;;10.80;99.90;;;;;;5091642;28;20040;-74
2022/11/16 06:35:49;;;;;;;25.35;17.73;;;10.80;99.90;;;;;;5091851;28;20040;-74
2022/11/16 06:38:17;;;;;;;24.45;17.52;;;10.80;99.90;;;;;;5091951;28;20133;-74
2022/11/16 06:40:44;;;;;;;25.75;17.88;;;10.90;99.90;;;;;;5091716;28;20032;-74
2022/11/16 06:43:10;;;;;;;28.58;18.27;;;10.80;99.90;;;;;;5091458;28;20520;-74
2022/11/16 06:45:36;;;;;;;23.45;16.45;;;10.90;99.90;;;;;;5091681;28;20032;-73
2022/11/16 06:48:01;;;;;;;25.77;19.20;;;11.10;99.90;;;;;;5091551;28;20032;-73
2022/11/16 06:50:27;;;;;;;23.10;16.17;;;10.90;99.90;;;;;;5091482;28;20046;-74
2022/11/16 06:52:52;;;;;;;25.23;18.52;;;10.90;99.90;;;;;;5091252;28;20040;-74
2022/11/16 06:55:18;;;;;;;26.13;18.90;;;11.00;99.90;;;;;;5091454;28;20166;-74
2022/11/16 06:57:45;;;;;;;27.58;18.95;;;11.00;99.90;;;;;;5091666;28;20036;-74
2022/11/16 07:00:11;;;;;;;25.42;17.73;;;10.80;99.90;;;;;;5091487;28;20123;-73
2022/11/16 07:02:37;;;;;;;29.05;19.50;;;10.80;99.90;;;;;;5090790;28;20062;-74
2022/11/16 07:05:04;;;;;;;29.00;17.83;;;10.90;99.90;;;;;;5092550;28;20040;-73
2022/11/16 07:07:29;;;;;;;31.80;19.65;;;10.80;99.90;;;;;;5091495;28;20040;-73
2022/11/16 07:09:55;;;;;;;29.65;20.15;;;10.90;99.90;;;;;;5091232;28;20456;-74
2022/11/16 07:12:20;;;;;;;27.13;17.95;;;11.00;99.90;;;;;;5091041;28;20417;-74
2022/11/16 07:14:46;;;;;;;21.52;16.85;;;10.80;99.90;;;;;;5090914;28;20485;-73
2022/11/16 07:17:11;;;;;;;22.75;16.67;;;10.80;99.90;;;;;;5090946;28;20070;-73
2022/11/16 07:19:37;;;;;;;23.65;16.95;;;11.00;99.90;;;;;;5091085;28;20375;-74
2022/11/16 07:22:03;;;;;;;19.48;15.52;;;11.00;99.90;;;;;;5090489;28;20036;-74
2022/11/16 07:24:28;;;;;;;25.92;15.70;;;11.00;99.90;;;;;;5090476;28;20127;-74
2022/11/16 07:26:54;;;;;;;18.77;14.27;;;10.90;99.90;;;;;;5092024;28;20040;-73
2022/11/16 07:29:21;;;;;;;18.85;13.98;;;10.80;99.90;;;;;;5091407;28;20504;-73
2022/11/16 07:31:46;;;;;;;19.75;14.68;;;11.00;99.90;;;;;;5091837;28;20044;-73
2022/11/16 07:34:12;;;;;;;24.92;16.60;;;10.90;99.90;;;;;;5091301;28;20173;-74
2022/11/16 07:36:38;;;;;;;21.08;14.43;;;11.00;99.90;;;;;;5081067;28;20044;-73
2022/11/16 07:39:03;;;;;;;17.08;13.13;;;10.90;99.90;;;;;;5091655;28;20047;-74
2022/11/16 07:41:29;;;;;;;18.33;14.43;;;10.90;99.90;;;;;;5090542;28;20040;-73
2022/11/16 07:43:55;;;;;;;19.58;13.57;;;11.00;99.90;;;;;;5090433;28;20505;-74
2022/11/16 07:46:22;;;;;;;17.27;13.13;;;10.90;99.90;;;;;;5091989;28;20127;-73
2022/11/16 07:48:47;;;;;;;20.70;14.73;;;10.90;99.90;;;;;;5090516;28;20512;-73
2022/11/16 07:51:16;;;;;;;18.38;13.80;;;11.00;99.90;;;;;;5090938;28;20048;-73
2022/11/16 07:53:42;;;;;;;19.67;14.50;;;11.00;99.90;;;;;;5090597;28;20374;-73
2022/11/16 07:56:09;;;;;;;21.02;15.32;;;11.00;99.90;;;;;;5092187;28;20044;-73
2022/11/16 07:58:35;;;;;;;20.90;15.38;;;11.00;99.90;;;;;;5090755;28;20054;-73
2022/11/16 08:01:06;;;;;;;20.52;15.30;;;10.90;99.90;;;;;;5089808;28;20501;-73
2022/11/16 08:03:33;;;;;;;33.75;19.52;;;10.90;99.90;;;;;;5090017;28;20071;-73
2022/11/16 08:06:04;;;;;;;27.65;17.13;;;11.10;99.90;;;;;;5090695;28;20048;-73
2022/11/16 08:08:30;;;;;;;28.17;18.40;;;11.00;99.90;;;;;;5090466;28;20078;-73
2022/11/16 08:11:01;;;;;;;27.48;18.80;;;11.00;99.90;;;;;;5073610;28;20032;-73
2022/11/16 08:13:27;;;;;;;21.25;14.95;;;11.10;99.90;;;;;;5087019;28;20497;-73
2022/11/16 08:15:52;;;;;;;20.48;14.98;;;11.00;99.90;;;;;;5086903;28;20047;-73
2022/11/16 08:18:18;;;;;;;19.95;14.90;;;10.90;99.90;;;;;;5091394;28;20033;-73
2022/11/16 08:20:44;;;;;;;24.08;19.15;;;10.90;99.90;;;;;;5090082;28;20118;-73
2022/11/16 08:23:10;;;;;;;22.60;15.32;;;11.00;99.90;;;;;;5089654;28;20032;-73
2022/11/16 08:25:36;;;;;;;20.38;14.43;;;11.00;99.90;;;;;;5090418;28;20040;-73
2022/11/16 08:28:01;;;;;;;22.02;15.77;;;10.90;99.90;;;;;;5090286;28;20044;-73
2022/11/16 08:30:27;;;;;;;21.00;14.73;;;11.00;99.90;;;;;;5089903;28;20036;-73
2022/11/16 08:32:52;;;;;;;19.42;14.27;;;10.90;99.90;;;;;;5070616;28;20048;-73
2022/11/16 08:35:18;;;;;;;20.20;14.10;;;11.00;99.90;;;;;;5068916;28;20437;-73
2022/11/16 08:37:44;;;;;;;18.27;14.15;;;10.90;99.90;;;;;;5068847;28;20036;-73
2022/11/16 08:40:10;;;;;;;18.50;14.27;;;11.00;99.90;;;;;;5069841;28;20422;-74
2022/11/16 08:42:35;;;;;;;17.20;13.98;;;10.90;99.90;;;;;;5069543;28;20040;-74
2022/11/16 08:45:01;;;;;;;19.90;14.80;;;11.10;99.90;;;;;;5069842;28;20682;-73
2022/11/16 08:47:26;;;;;;;16.25;12.38;;;10.90;99.90;;;;;;5070123;28;20044;-73
2022/11/16 08:49:52;;;;;;;15.68;12.55;;;10.90;99.90;;;;;;5069888;28;20040;-74
2022/11/16 08:52:17;;;;;;;16.27;12.18;;;11.00;99.90;;;;;;5070824;28;20044;-73
2022/11/16 08:54:43;;;;;;;17.20;11.85;;;10.90;99.90;;;;;;5071082;28;20556;-73
2022/11/16 08:57:09;;;;;;;14.05;12.07;;;11.00;99.90;;;;;;5071208;28;20081;-73
2022/11/16 08:59:34;;;;;;;13.70;11.13;;;11.00;99.90;;;;;;5069740;28;20518;-73
2022/11/16 09:02:00;;;;;;;14.82;10.30;;;11.00;99.90;;;;;;5069483;28;20494;-73
2022/11/16 09:04:26;;;;;;;14.27;10.63;;;11.00;99.90;;;;;;5071028;28;20105;-74
2022/11/16 09:06:52;;;;;;;12.15;10.60;;;10.90;99.90;;;;;;5071046;28;20040;-74
2022/11/16 09:09:18;;;;;;;13.93;11.52;;;10.90;99.90;;;;;;5070884;28;20042;-73
2022/11/16 09:11:43;;;;;;;12.85;10.07;;;11.00;99.90;;;;;;5071237;28;20125;-73
2022/11/16 09:14:09;;;;;;;15.73;12.73;;;11.00;99.90;;;;;;5074286;28;20040;-73
2022/11/16 09:16:34;;;;;;;18.80;12.88;;;11.10;99.90;;;;;;5073194;28;20041;-73
2022/11/16 09:19:00;;;;;;;18.73;14.63;;;11.10;99.90;;;;;;5073049;28;20045;-73
2022/11/16 09:21:27;;;;;;;14.95;13.20;;;11.10;99.90;;;;;;5074454;28;20048;-73
2022/11/16 09:23:54;;;;;;;22.02;18.00;;;11.10;99.90;;;;;;5073222;28;20103;-73
2022/11/16 09:26:21;;;;;;;20.02;16.65;;;11.10;99.90;;;;;;5073118;28;20041;-73
2022/11/16 09:28:59;;;;;;;18.45;15.13;;;11.00;99.90;;;;;;5073165;28;20042;-73
2022/11/16 09:31:30;;;;;;;18.15;14.57;;;11.20;99.90;;;;;;5073253;28;20608;-73
2022/11/16 09:33:57;;;;;;;18.50;14.85;;;11.20;99.90;;;;;;5072961;28;20071;-73
2022/11/16 09:36:23;;;;;;;20.30;15.77;;;11.10;99.90;;;;;;5073180;28;20454;-73
2022/11/16 09:38:49;;;;;;;25.58;16.45;;;11.10;99.90;;;;;;5084494;28;20040;-73
2022/11/16 09:41:14;;;;;;;18.45;15.80;;;11.30;99.90;;;;;;5083628;28;20040;-73
2022/11/16 09:43:52;;;;;;;21.23;16.10;;;11.20;99.90;;;;;;5081297;28;20095;-74
2022/11/16 09:46:24;;;;;;;24.75;18.27;;;11.20;99.90;;;;;;5081708;28;20044;-73
2022/11/16 09:48:51;;;;;;;22.48;17.83;;;11.30;99.90;;;;;;5084492;28;20047;-73
2022/11/16 09:51:20;;;;;;;25.75;19.77;;;11.30;99.90;;;;;;5084684;28;20121;-73
2022/11/16 09:53:58;;;;;;;25.00;17.92;;;11.30;99.90;;;;;;5082921;28;20048;-73
2022/11/16 09:56:27;;;;;;;23.15;18.75;;;11.40;99.90;;;;;;5082035;28;20045;-73
2022/11/16 09:59:08;;;;;;;24.95;19.17;;;11.40;99.90;;;;;;5080388;28;20104;-74
2022/11/16 10:01:45;;;;;;;22.65;18.05;;;11.40;99.90;;;;;;5066441;28;20147;-73
2022/11/16 10:04:35;;;;;;;22.27;18.77;;;11.50;99.90;;;;;;5084094;28;20167;-73
2022/11/16 10:07:18;;;;;;;24.85;20.13;;;11.50;99.90;;;;;;5080056;28;20052;-73
2022/11/16 10:09:45;;;;;;;23.23;18.40;;;11.50;99.90;;;;;;5091855;28;20402;-73
2022/11/16 10:12:32;;;;;;;24.23;18.58;;;11.60;99.90;;;;;;5072137;28;20105;-73
2022/11/16 10:15:00;;;;;;;23.13;18.83;;;11.70;99.90;;;;;;5087376;28;20042;-73
2022/11/16 10:17:32;;;;;;;23.70;19.40;;;11.70;99.90;;;;;;5085674;28;20125;-74
2022/11/16 10:20:24;;;;;;;24.98;20.30;;;11.60;99.90;;;;;;5089368;28;20040;-73
2022/11/16 10:23:05;;;;;;;26.58;19.60;;;11.70;99.90;;;;;;5092295;28;20074;-73
2022/11/16 10:25:45;;;;;;;23.55;17.67;;;11.70;99.90;;;;;;5093660;28;20036;-73
2022/11/16 10:28:36;;;;;;;26.40;19.77;;;11.80;99.90;;;;;;5092088;28;20048;-73
2022/11/16 10:31:13;;;;;;;24.90;18.88;;;11.70;99.90;;;;;;5092381;28;20172;-73
2022/11/16 10:33:42;;;;;;;24.02;18.60;;;11.80;99.90;;;;;;5091699;28;20366;-73
2022/11/16 10:36:12;;;;;;;23.90;18.83;;;11.80;99.90;;;;;;5093336;28;20058;-74
2022/11/16 10:38:38;;;;;;;23.00;18.92;;;11.80;99.90;;;;;;5091905;28;20328;-74
2022/11/16 10:41:32;;;;;;;24.40;19.05;;;11.70;99.90;;;;;;5092022;28;20036;-73
2022/11/16 10:44:00;;;;;;;24.40;19.25;;;11.70;99.90;;;;;;5092762;28;20044;-73
2022/11/16 10:46:35;;;;;;;28.23;20.98;;;11.70;99.90;;;;;;5091778;28;20032;-74
2022/11/16 10:49:27;;;;;;;22.27;18.30;;;11.90;99.90;;;;;;5092934;28;20489;-74
2022/11/16 10:51:52;;;;;;;28.98;20.52;;;11.80;99.90;;;;;;5074795;28;20433;-74
2022/11/16 10:54:18;;;;;;;26.73;19.73;;;11.80;99.90;;;;;;5091505;28;20048;-73
2022/11/16 10:56:50;;;;;;;27.83;19.45;;;11.90;99.90;;;;;;5091629;28;20122;-73
2022/11/16 10:59:18;;;;;;;26.47;19.13;;;12.00;99.90;;;;;;5091593;28;20126;-73
2022/11/16 11:01:56;;;;;;;25.63;18.85;;;12.10;99.90;;;;;;5074332;28;20301;-73
2022/11/16 11:04:27;;;;;;;24.58;19.58;;;12.00;99.90;;;;;;5074643;28;20371;-73
2022/11/16 11:07:20;;;;;;;25.23;19.42;;;12.20;99.90;;;;;;5085365;28;20036;-73
2022/11/16 11:09:51;;;;;;;23.30;17.42;;;12.00;99.90;;;;;;5076512;28;20098;-73
2022/11/16 11:12:37;;;;;;;22.38;17.45;;;12.10;99.90;;;;;;5070901;28;20040;-74
2022/11/16 11:15:19;;;;;;;21.98;16.60;;;12.20;99.90;;;;;;5071244;28;20078;-74
2022/11/16 11:17:46;;;;;;;23.13;16.90;;;12.10;99.90;;;;;;5070949;28;20040;-74
2022/11/16 11:20:15;;;;;;;21.17;15.35;;;12.20;99.90;;;;;;5075881;28;20044;-73
2022/11/16 11:22:49;;;;;;;20.30;16.55;;;12.40;99.90;;;;;;5070456;28;20040;-74
2022/11/16 11:25:40;;;;;;;17.15;13.02;;;12.40;99.90;;;;;;5071937;28;20032;-74
2022/11/16 11:28:32;;;;;;;17.88;11.95;;;12.40;99.90;;;;;;5081761;28;20145;-73
2022/11/16 11:31:24;;;;;;;15.93;11.68;;;12.40;99.90;;;;;;5071272;28;20681;-73
2022/11/16 11:33:57;;;;;;;15.07;10.93;;;12.50;99.90;;;;;;5082198;28;20122;-73
2022/11/16 11:36:31;;;;;;;18.88;11.05;;;12.40;99.90;;;;;;5069950;28;20072;-72
2022/11/16 11:39:02;;;;;;;15.57;10.25;;;12.30;99.90;;;;;;5070621;28;20079;-73
2022/11/16 11:41:33;;;;;;;15.25;10.60;;;12.40;99.90;;;;;;5070388;28;20048;-72
2022/11/16 11:44:02;;;;;;;23.40;10.80;;;12.40;99.90;;;;;;5070248;28;20043;-72
2022/11/16 11:46:29;;;;;;;20.33;11.05;;;12.20;99.90;;;;;;5071721;28;20059;-72
2022/11/16 11:49:10;;;;;;;16.55;9.85;;;12.10;99.90;;;;;;5070335;28;20090;-72
2022/11/16 11:51:41;;;;;;;17.85;11.43;;;12.20;99.90;;;;;;5070406;28;20656;-72
2022/11/16 11:54:15;;;;;;;16.60;10.63;;;12.10;99.90;;;;;;5070144;28;20058;-72
2022/11/16 11:56:41;;;;;;;15.88;11.02;;;12.20;99.90;;;;;;5070344;28;20119;-72
2022/11/16 11:59:13;;;;;;;14.50;10.68;;;12.20;99.90;;;;;;5071770;28;20087;-72
2022/11/16 12:02:16;;;;;;;18.95;11.00;;;12.20;99.90;;;;;;5069978;28;20044;-72
2022/11/16 12:05:03;;;;;;;14.50;10.10;;;12.30;99.90;;;;;;5071412;28;20040;-72
2022/11/16 12:08:13;;;;;;;17.25;10.85;;;12.20;99.90;;;;;;5070227;28;20043;-72
2022/11/16 12:10:39;;;;;;;13.88;8.68;;;12.10;99.90;;;;;;5070443;28;20079;-72
2022/11/16 12:13:29;;;;;;;13.90;9.60;;;12.30;99.90;;;;;;5071028;28;20068;-72
2022/11/16 12:16:01;;;;;;;10.98;9.25;;;12.40;99.90;;;;;;5070418;28;20048;-72
2022/11/16 12:18:42;;;;;;;10.98;8.90;;;12.20;99.90;;;;;;5070285;28;20045;-72
2022/11/16 12:21:12;;;;;;;15.88;8.50;;;12.30;99.90;;;;;;5071227;28;20072;-72
2022/11/16 12:24:17;;;;;;;11.05;7.90;;;12.50;99.90;;;;;;5069655;28;20083;-71
2022/11/16 12:27:00;;;;;;;11.45;7.97;;;12.50;99.90;;;;;;5071310;28;20037;-72
2022/11/16 12:30:05;;;;;;;10.27;6.40;;;12.40;99.90;;;;;;5071393;28;20094;-72
2022/11/16 12:32:58;;;;;;;11.65;5.40;;;12.50;99.90;;;;;;5063119;28;20056;-72
2022/11/16 12:35:39;;;;;;;11.45;5.40;;;12.70;99.90;;;;;;5069710;28;20506;-72
2022/11/16 12:38:26;;;;;;;7.47;4.47;;;12.60;99.90;;;;;;5071198;28;20036;-72
2022/11/16 12:41:20;;;;;;;5.18;4.30;;;12.70;99.90;;;;;;5070053;28;20097;-72
2022/11/16 12:44:00;;;;;;;9.90;3.13;;;12.70;99.90;;;;;;5069702;28;20545;-72
2022/11/16 12:47:03;;;;;;;9.27;3.30;;;12.70;99.90;;;;;;5071079;28;20533;-72
2022/11/16 12:49:37;;;;;;;9.30;3.47;;;12.80;99.90;;;;;;5057049;28;20089;-72
2022/11/16 12:52:11;;;;;;;6.40;2.90;;;12.60;99.90;;;;;;5074717;28;20041;-71
2022/11/16 12:54:52;;;;;;;9.77;4.10;;;12.70;99.90;;;;;;5074652;28;20055;-71
2022/11/16 12:57:32;;;;;;;9.70;3.20;;;12.90;99.90;;;;;;5073867;28;20682;-71
2022/11/16 13:00:08;;;;;;;10.63;3.97;;;12.90;99.90;;;;;;5074847;28;20079;-71
2022/11/16 13:02:55;;;;;;;10.27;3.45;;;12.70;99.90;;;;;;5072881;28;20423;-71
2022/11/16 13:05:58;;;;;;;9.10;3.20;;;12.80;99.90;;;;;;5073497;28;20163;-72
2022/11/16 13:08:43;;;;;;;11.52;4.18;;;12.70;99.90;;;;;;5074650;28;20043;-71
2022/11/16 13:11:17;;;;;;;6.95;3.50;;;12.80;99.90;;;;;;5073337;28;20040;-71
2022/11/16 13:13:44;;;;;;;12.48;3.45;;;12.80;99.90;;;;;;5074160;28;20036;-72
2022/11/16 13:16:14;;;;;;;11.18;4.07;;;12.70;99.90;;;;;;5073347;28;20127;-72
2022/11/16 13:18:41;;;;;;;7.22;2.95;;;12.80;99.90;;;;;;5074576;28;20033;-72
2022/11/16 13:21:17;;;;;;;8.40;3.17;;;12.80;99.90;;;;;;5073135;28;20129;-71
2022/11/16 13:24:03;;;;;;;11.63;4.00;;;12.60;99.90;;;;;;5072957;28;20067;-72